createdAt,value
2022-12-08T00:00:42.169Z,5.40
2022-12-08T00:03:09.996Z,4.60
2022-12-08T00:05:55.266Z,4.60
2022-12-08T00:08:40.785Z,4.70
2022-12-08T00:11:12.583Z,4.70
2022-12-08T00:13:41.982Z,4.80
2022-12-08T00:16:09.764Z,4.80
2022-12-08T00:18:38.010Z,4.80
2022-12-08T00:21:05.766Z,4.80
2022-12-08T00:23:33.492Z,4.70
2022-12-08T00:26:02.885Z,4.80
2022-12-08T00:28:30.566Z,4.70
2022-12-08T00:30:59.616Z,4.70
2022-12-08T00:33:28.474Z,4.80
2022-12-08T00:35:56.133Z,4.70
2022-12-08T00:38:23.848Z,4.80
2022-12-08T00:40:51.530Z,4.70
2022-12-08T00:43:19.180Z,4.80
2022-12-08T00:45:46.944Z,4.80
2022-12-08T00:48:15.956Z,4.90
2022-12-08T00:50:43.792Z,4.90
2022-12-08T00:53:11.507Z,4.90
2022-12-08T00:55:39.156Z,4.90
2022-12-08T00:58:06.934Z,4.80
2022-12-08T01:00:34.586Z,4.70
2022-12-08T01:03:02.318Z,4.70
2022-12-08T01:05:31.321Z,4.70
2022-12-08T01:07:59.026Z,4.60
2022-12-08T01:10:26.728Z,4.60
2022-12-08T01:12:54.419Z,4.60
2022-12-08T01:15:22.056Z,4.50
2022-12-08T01:17:49.748Z,4.60
2022-12-08T01:20:17.435Z,4.60
2022-12-08T01:22:46.415Z,4.70
2022-12-08T01:25:14.048Z,4.70
2022-12-08T01:27:41.698Z,4.70
2022-12-08T01:30:10.167Z,4.70
2022-12-08T01:32:37.835Z,4.70
2022-12-08T01:35:05.749Z,4.70
2022-12-08T01:37:33.411Z,4.70
2022-12-08T01:40:02.943Z,4.70
2022-12-08T01:42:32.371Z,4.60
2022-12-08T01:45:01.489Z,4.60
2022-12-08T01:47:32.327Z,4.70
2022-12-08T01:50:00.301Z,4.60
2022-12-08T01:52:30.181Z,4.60
2022-12-08T01:54:59.993Z,4.70
2022-12-08T01:57:30.481Z,4.70
2022-12-08T02:00:02.529Z,4.70
2022-12-08T02:02:32.363Z,4.70
2022-12-08T02:05:00.757Z,4.70
2022-12-08T02:07:28.408Z,4.70
2022-12-08T02:09:56.539Z,4.80
2022-12-08T02:12:24.345Z,4.80
2022-12-08T02:14:53.371Z,4.80
2022-12-08T02:17:27.218Z,4.70
2022-12-08T02:20:12.564Z,4.70
2022-12-08T02:22:44.024Z,4.70
2022-12-08T02:25:14.465Z,4.80
2022-12-08T02:27:45.445Z,4.80
2022-12-08T02:30:19.506Z,4.80
2022-12-08T02:33:01.151Z,4.90
2022-12-08T02:35:31.487Z,4.90
2022-12-08T02:38:04.724Z,4.90
2022-12-08T02:40:35.584Z,4.90
2022-12-08T02:43:04.621Z,4.90
2022-12-08T02:45:34.908Z,4.90
2022-12-08T02:48:02.584Z,5.00
2022-12-08T02:50:31.596Z,5.00
2022-12-08T02:52:59.244Z,4.90
2022-12-08T02:55:28.840Z,4.90
2022-12-08T02:58:11.378Z,4.90
2022-12-08T03:00:45.934Z,4.80
2022-12-08T03:03:17.704Z,4.80
2022-12-08T03:05:55.610Z,4.90
2022-12-08T03:08:25.523Z,4.90
2022-12-08T03:10:57.117Z,4.80
2022-12-08T03:13:26.693Z,4.80
2022-12-08T03:15:55.575Z,4.70
2022-12-08T03:18:25.181Z,4.80
2022-12-08T03:20:54.293Z,4.70
2022-12-08T03:23:22.933Z,4.60
2022-12-08T03:25:53.473Z,4.70
2022-12-08T03:28:23.220Z,4.60
2022-12-08T03:30:53.421Z,4.60
2022-12-08T03:33:24.143Z,4.70
2022-12-08T03:35:52.603Z,4.70
2022-12-08T03:38:22.619Z,4.70
2022-12-08T03:41:10.875Z,4.70
2022-12-08T03:43:38.519Z,4.60
2022-12-08T03:46:06.387Z,4.60
2022-12-08T03:48:34.068Z,4.60
2022-12-08T03:51:01.718Z,4.60
2022-12-08T03:53:30.696Z,4.60
2022-12-08T03:55:58.361Z,4.50
2022-12-08T03:58:26.003Z,4.50
2022-12-08T04:00:53.645Z,4.50
2022-12-08T04:03:21.367Z,4.40
2022-12-08T04:05:49.154Z,4.50
2022-12-08T04:08:16.848Z,4.40
2022-12-08T04:10:45.875Z,4.40
2022-12-08T04:13:13.516Z,4.40
2022-12-08T04:15:45.163Z,4.40
2022-12-08T04:18:12.868Z,4.40
2022-12-08T04:20:40.958Z,4.40
2022-12-08T04:23:11.061Z,4.40
2022-12-08T04:25:40.053Z,4.40
2022-12-08T04:28:09.068Z,4.30
2022-12-08T04:30:36.922Z,4.30
2022-12-08T04:33:04.611Z,4.30
2022-12-08T04:35:32.541Z,4.30
2022-12-08T04:38:00.333Z,4.30
2022-12-08T04:40:28.160Z,4.30
2022-12-08T04:42:56.208Z,4.20
2022-12-08T04:45:25.209Z,4.20
2022-12-08T04:47:52.901Z,4.20
2022-12-08T04:50:20.696Z,4.20
2022-12-08T04:52:48.364Z,4.10
2022-12-08T04:55:16.107Z,4.10
2022-12-08T04:57:43.887Z,4.10
2022-12-08T05:00:12.285Z,4.20
2022-12-08T05:02:41.516Z,4.10
2022-12-08T05:05:09.600Z,4.00
2022-12-08T05:07:37.430Z,4.00
2022-12-08T05:10:05.957Z,4.00
2022-12-08T05:12:34.201Z,4.10
2022-12-08T05:15:01.898Z,4.00
2022-12-08T05:17:29.563Z,4.00
2022-12-08T05:19:58.575Z,4.00
2022-12-08T05:22:26.222Z,4.00
2022-12-08T05:24:53.882Z,4.10
2022-12-08T05:27:21.529Z,4.00
2022-12-08T05:29:50.166Z,4.00
2022-12-08T05:32:17.801Z,3.90
2022-12-08T05:34:45.563Z,4.00
2022-12-08T05:37:14.602Z,4.00
2022-12-08T05:39:42.256Z,4.00
2022-12-08T05:42:09.998Z,4.00
2022-12-08T05:44:37.644Z,4.00
2022-12-08T05:47:05.345Z,4.00
2022-12-08T05:49:33.174Z,4.10
2022-12-08T05:52:00.846Z,4.00
2022-12-08T05:54:30.325Z,4.00
2022-12-08T05:56:58.100Z,4.00
2022-12-08T05:59:25.804Z,4.00
2022-12-08T06:01:53.512Z,4.00
2022-12-08T06:04:22.132Z,4.00
2022-12-08T06:06:49.814Z,4.00
2022-12-08T06:09:17.519Z,4.00
2022-12-08T06:11:47.410Z,3.90
2022-12-08T06:14:15.080Z,3.90
2022-12-08T06:16:42.821Z,3.90
2022-12-08T06:19:10.514Z,3.90
2022-12-08T06:21:38.171Z,3.90
2022-12-08T06:24:05.993Z,3.90
2022-12-08T06:26:35.847Z,3.90
2022-12-08T06:29:05.019Z,3.90
2022-12-08T06:31:32.836Z,4.00
2022-12-08T06:34:00.508Z,4.10
2022-12-08T06:36:28.828Z,4.20
2022-12-08T06:38:56.673Z,4.20
2022-12-08T06:41:24.302Z,4.20
2022-12-08T06:43:52.064Z,4.20
2022-12-08T06:46:21.349Z,4.10
2022-12-08T06:48:50.507Z,4.10
2022-12-08T06:51:19.483Z,4.10
2022-12-08T06:53:47.608Z,4.10
2022-12-08T06:56:15.768Z,4.20
2022-12-08T06:58:49.004Z,4.10
2022-12-08T07:01:21.526Z,4.20
2022-12-08T07:03:49.352Z,4.10
2022-12-08T07:06:18.871Z,4.10
2022-12-08T07:08:46.536Z,4.00
2022-12-08T07:11:20.936Z,4.00
2022-12-08T07:13:49.516Z,4.00
2022-12-08T07:16:17.343Z,4.00
2022-12-08T07:18:46.426Z,4.10
2022-12-08T07:21:14.835Z,4.20
2022-12-08T07:23:42.912Z,4.10
2022-12-08T07:26:11.754Z,4.10
2022-12-08T07:28:40.473Z,4.10
2022-12-08T07:31:09.245Z,4.10
2022-12-08T07:33:37.699Z,4.10
2022-12-08T07:36:07.419Z,4.10
2022-12-08T07:38:35.114Z,4.10
2022-12-08T07:41:02.981Z,4.00
2022-12-08T07:43:30.683Z,4.10
2022-12-08T07:45:58.388Z,4.10
2022-12-08T07:48:26.084Z,4.10
2022-12-08T07:51:01.177Z,4.10
2022-12-08T07:53:30.285Z,4.10
2022-12-08T07:55:58.108Z,4.10
2022-12-08T07:58:25.796Z,4.10
2022-12-08T08:00:53.687Z,4.10
2022-12-08T08:03:22.012Z,4.10
2022-12-08T08:05:50.088Z,4.10
2022-12-08T08:08:17.970Z,4.20
2022-12-08T08:10:47.343Z,4.20
2022-12-08T08:13:15.014Z,4.20
2022-12-08T08:15:42.788Z,4.30
2022-12-08T08:18:10.976Z,4.20
2022-12-08T08:20:38.621Z,4.30
2022-12-08T08:23:06.303Z,4.30
2022-12-08T08:25:33.975Z,4.40
2022-12-08T08:28:02.968Z,4.40
2022-12-08T08:30:30.624Z,4.40
2022-12-08T08:32:58.277Z,4.40
2022-12-08T08:35:25.941Z,4.50
2022-12-08T08:37:53.660Z,4.50
2022-12-08T08:40:21.287Z,4.50
2022-12-08T08:42:48.946Z,4.50
2022-12-08T08:45:17.925Z,4.60
2022-12-08T08:47:45.695Z,4.50
2022-12-08T08:50:13.690Z,4.60
2022-12-08T08:52:41.390Z,4.60
2022-12-08T08:55:09.303Z,4.60
2022-12-08T08:57:36.950Z,4.50
2022-12-08T09:00:05.522Z,4.60
2022-12-08T09:02:34.620Z,4.60
2022-12-08T09:05:02.339Z,4.60
2022-12-08T09:07:30.103Z,4.60
2022-12-08T09:10:01.572Z,4.70
2022-12-08T09:12:29.896Z,4.70
2022-12-08T09:14:57.585Z,4.70
2022-12-08T09:17:25.222Z,4.80
2022-12-08T09:19:54.392Z,4.80
2022-12-08T09:22:22.107Z,4.70
2022-12-08T09:24:49.770Z,4.80
2022-12-08T09:27:17.439Z,4.80
2022-12-08T09:29:45.104Z,4.80
2022-12-08T09:32:12.753Z,4.80
2022-12-08T09:34:40.419Z,4.90
2022-12-08T09:37:09.442Z,4.90
2022-12-08T09:39:37.076Z,4.90
2022-12-08T09:42:06.876Z,5.00
2022-12-08T09:44:45.163Z,4.90
2022-12-08T09:47:21.800Z,5.00
2022-12-08T09:49:53.053Z,5.00
2022-12-08T09:52:24.242Z,5.10
2022-12-08T09:54:51.923Z,5.10
2022-12-08T09:57:21.477Z,5.00
2022-12-08T09:59:52.051Z,5.00
2022-12-08T10:02:21.904Z,5.10
2022-12-08T10:04:49.715Z,5.10
2022-12-08T10:07:18.526Z,5.10
2022-12-08T10:09:54.142Z,5.10
2022-12-08T10:12:24.054Z,5.10
2022-12-08T10:14:56.732Z,5.10
2022-12-08T10:17:26.782Z,5.10
2022-12-08T10:19:57.938Z,5.10
2022-12-08T10:22:26.609Z,5.20
2022-12-08T10:24:58.805Z,5.20
2022-12-08T10:27:26.629Z,5.20
2022-12-08T10:29:54.289Z,5.30
2022-12-08T10:32:23.063Z,5.20
2022-12-08T10:35:01.488Z,5.30
2022-12-08T10:37:29.282Z,5.30
2022-12-08T10:40:12.175Z,5.30
2022-12-08T10:42:41.220Z,5.30
2022-12-08T10:45:24.133Z,5.20
2022-12-08T10:47:57.329Z,5.20
2022-12-08T10:50:28.796Z,5.30
2022-12-08T10:52:57.841Z,5.30
2022-12-08T10:55:27.325Z,5.30
2022-12-08T10:57:55.026Z,5.30
2022-12-08T11:00:24.443Z,5.30
2022-12-08T11:02:56.551Z,5.30
2022-12-08T11:05:26.695Z,5.30
2022-12-08T11:07:55.804Z,5.40
2022-12-08T11:10:31.498Z,5.40
2022-12-08T11:13:00.829Z,5.40
2022-12-08T11:15:33.310Z,5.40
2022-12-08T11:18:02.820Z,5.50
2022-12-08T11:20:38.567Z,5.50
2022-12-08T11:23:18.817Z,5.50
2022-12-08T11:25:47.905Z,5.40
2022-12-08T11:28:15.715Z,5.40
2022-12-08T11:30:45.797Z,5.40
2022-12-08T11:33:15.913Z,5.40
2022-12-08T11:35:44.938Z,5.50
2022-12-08T11:38:21.643Z,5.50
2022-12-08T11:40:52.795Z,5.60
2022-12-08T11:43:24.394Z,5.50
2022-12-08T11:45:54.584Z,5.50
2022-12-08T11:48:24.708Z,5.60
2022-12-08T11:50:53.663Z,5.60
2022-12-08T11:53:25.622Z,5.60
2022-12-08T11:55:56.148Z,5.70
2022-12-08T11:58:27.326Z,5.70
2022-12-08T12:00:55.071Z,5.70
2022-12-08T12:03:29.514Z,5.70
2022-12-08T12:06:18.217Z,5.80
2022-12-08T12:08:58.023Z,5.80
2022-12-08T12:11:48.801Z,5.80
2022-12-08T12:14:24.686Z,5.70
2022-12-08T12:16:58.411Z,5.70
2022-12-08T12:19:26.837Z,5.60
2022-12-08T12:21:56.142Z,5.60
2022-12-08T12:24:28.292Z,5.70
2022-12-08T12:26:59.529Z,5.70
2022-12-08T12:29:29.300Z,5.70
2022-12-08T12:31:59.390Z,5.80
2022-12-08T12:34:28.174Z,5.80
2022-12-08T12:36:56.924Z,5.80
2022-12-08T12:39:26.121Z,5.90
2022-12-08T12:41:54.918Z,5.90
2022-12-08T12:44:37.678Z,6.00
2022-12-08T12:47:07.289Z,5.80
2022-12-08T12:49:51.196Z,5.90
2022-12-08T12:52:40.976Z,5.90
2022-12-08T12:55:22.343Z,5.90
2022-12-08T12:57:51.728Z,5.90
2022-12-08T13:00:22.085Z,5.90
2022-12-08T13:02:50.474Z,6.00
2022-12-08T13:05:20.063Z,5.80
2022-12-08T13:07:50.826Z,5.70
2022-12-08T13:10:19.879Z,5.80
2022-12-08T13:13:02.014Z,5.90
2022-12-08T13:15:34.441Z,5.90
2022-12-08T13:18:02.206Z,5.90
2022-12-08T13:20:29.925Z,5.80
2022-12-08T13:23:12.068Z,6.00
2022-12-08T13:25:47.287Z,5.90
2022-12-08T13:28:18.615Z,5.80
2022-12-08T13:30:48.157Z,5.90
2022-12-08T13:33:19.139Z,5.80
2022-12-08T13:35:52.999Z,5.80
2022-12-08T13:38:22.527Z,5.80
2022-12-08T13:40:51.087Z,5.70
2022-12-08T13:43:20.989Z,5.80
2022-12-08T13:57:23.646Z,5.70
2022-12-08T13:59:51.378Z,5.70
2022-12-08T14:02:24.055Z,5.70
2022-12-08T14:05:17.446Z,5.80
2022-12-08T14:07:41.004Z,5.80
2022-12-08T14:10:09.483Z,5.80
2022-12-08T14:12:37.588Z,5.60
2022-12-08T14:15:07.046Z,5.70
2022-12-08T14:17:36.038Z,5.70
2022-12-08T14:20:20.130Z,5.80
2022-12-08T14:22:50.276Z,5.70
2022-12-08T14:25:18.215Z,5.60
2022-12-08T14:27:46.171Z,5.50
2022-12-08T14:30:19.294Z,5.50
2022-12-08T14:32:49.771Z,5.60
2022-12-08T14:35:21.014Z,5.50
2022-12-08T14:37:49.761Z,5.50
2022-12-08T14:40:23.486Z,5.50
2022-12-08T14:42:52.914Z,5.50
2022-12-08T14:45:20.721Z,5.50
2022-12-08T14:47:51.086Z,5.40
2022-12-08T14:50:38.649Z,5.30
2022-12-08T14:53:10.921Z,5.40
2022-12-08T14:55:39.033Z,5.30
2022-12-08T14:58:06.782Z,5.40
2022-12-08T15:00:34.480Z,5.30
2022-12-08T15:03:06.670Z,5.10
2022-12-08T15:05:34.401Z,5.30
2022-12-08T15:08:03.772Z,5.20
2022-12-08T15:10:33.177Z,5.20
2022-12-08T15:13:02.250Z,5.20
2022-12-08T15:15:30.556Z,5.10
2022-12-08T15:18:13.168Z,5.00
2022-12-08T15:20:41.842Z,5.00
2022-12-08T15:23:19.927Z,5.10
2022-12-08T15:25:47.611Z,4.90
2022-12-08T15:28:16.873Z,4.90
2022-12-08T15:30:44.651Z,4.80
2022-12-08T15:33:13.681Z,4.90
2022-12-08T15:35:41.339Z,4.80
2022-12-08T15:38:16.620Z,4.70
2022-12-08T15:40:44.274Z,4.70
2022-12-08T15:43:12.294Z,4.60
2022-12-08T15:45:46.881Z,4.60
2022-12-08T15:48:25.760Z,4.80
2022-12-08T15:50:53.689Z,4.60
2022-12-08T15:53:21.580Z,4.40
2022-12-08T15:56:18.796Z,4.60
2022-12-08T15:58:55.368Z,4.70
2022-12-08T16:01:24.186Z,4.50
2022-12-08T16:09:31.840Z,4.40
2022-12-08T16:12:17.575Z,4.50
2022-12-08T16:17:33.198Z,4.20
2022-12-08T16:20:02.817Z,4.30
2022-12-08T16:25:20.965Z,3.90
2022-12-08T16:28:01.492Z,3.80
2022-12-08T16:30:33.988Z,4.00
2022-12-08T16:33:02.125Z,3.90
2022-12-08T16:35:31.299Z,3.80
2022-12-08T16:37:58.983Z,3.60
2022-12-08T16:40:26.750Z,3.60
2022-12-08T16:42:53.484Z,3.90
2022-12-08T16:45:22.584Z,4.10
2022-12-08T16:47:51.036Z,3.60
2022-12-08T16:50:19.556Z,3.50
2022-12-08T16:52:49.245Z,3.50
2022-12-08T16:55:17.796Z,3.30
2022-12-08T16:57:46.077Z,3.20
2022-12-08T17:00:15.566Z,3.30
2022-12-08T17:02:43.316Z,3.80
2022-12-08T17:05:13.623Z,3.50
2022-12-08T17:07:41.937Z,3.50
2022-12-08T17:10:12.947Z,3.30
2022-12-08T17:12:40.643Z,3.40
2022-12-08T17:15:09.333Z,3.70
2022-12-08T17:17:37.457Z,3.30
2022-12-08T17:20:06.645Z,3.40
2022-12-08T17:22:34.973Z,3.30
2022-12-08T17:25:02.739Z,3.10
2022-12-08T17:27:31.767Z,3.10
2022-12-08T17:29:59.455Z,3.00
2022-12-08T17:32:27.292Z,3.20
2022-12-08T17:34:55.019Z,3.00
2022-12-08T17:37:22.840Z,3.00
2022-12-08T17:39:50.488Z,2.90
2022-12-08T17:42:18.153Z,3.00
2022-12-08T17:44:47.283Z,3.00
2022-12-08T17:47:14.932Z,3.00
2022-12-08T17:49:42.631Z,3.00
2022-12-08T17:52:10.967Z,2.90
2022-12-08T17:54:38.651Z,3.40
2022-12-08T17:57:06.347Z,3.50
2022-12-08T17:59:34.095Z,3.80
2022-12-08T18:02:04.426Z,3.90
2022-12-08T18:04:32.273Z,4.00
2022-12-08T18:07:01.232Z,4.10
2022-12-08T18:09:30.937Z,4.10
2022-12-08T18:11:58.658Z,4.00
2022-12-08T18:14:26.644Z,3.90
2022-12-08T18:16:54.429Z,3.50
2022-12-08T18:19:23.699Z,3.10
2022-12-08T18:21:51.353Z,3.00
2022-12-08T18:24:20.779Z,3.20
2022-12-08T18:26:49.013Z,3.50
2022-12-08T18:29:16.695Z,3.40
2022-12-08T18:31:44.341Z,2.90
2022-12-08T18:34:12.324Z,2.90
2022-12-08T18:36:41.337Z,3.00
2022-12-08T18:39:20.730Z,2.80
2022-12-08T18:41:48.388Z,2.70
2022-12-08T18:44:16.078Z,2.60
2022-12-08T18:46:43.778Z,2.70
2022-12-08T18:49:12.452Z,2.80
2022-12-08T18:51:41.464Z,2.70
2022-12-08T18:54:09.476Z,2.60
2022-12-08T18:56:37.463Z,2.60
2022-12-08T18:59:06.703Z,2.60
2022-12-08T19:01:35.720Z,2.70
2022-12-08T19:04:27.491Z,2.60
2022-12-08T19:06:54.181Z,2.60
2022-12-08T19:09:22.481Z,2.60
2022-12-08T19:11:50.144Z,2.70
2022-12-08T19:14:20.191Z,2.90
2022-12-08T19:16:52.173Z,2.90
2022-12-08T19:19:19.968Z,3.10
2022-12-08T19:21:47.681Z,2.90
2022-12-08T19:24:16.688Z,2.90
2022-12-08T19:26:44.359Z,3.00
2022-12-08T19:29:12.141Z,3.00
2022-12-08T19:31:40.309Z,3.10
2022-12-08T19:34:09.125Z,2.90
2022-12-08T19:36:42.129Z,3.20
2022-12-08T19:39:29.788Z,3.30
2022-12-08T19:42:16.177Z,3.60
2022-12-08T19:44:55.938Z,3.80
2022-12-08T19:47:25.091Z,4.00
2022-12-08T19:49:53.839Z,4.10
2022-12-08T19:52:21.841Z,4.10
2022-12-08T19:54:49.537Z,3.90
2022-12-08T19:57:20.369Z,4.00
2022-12-08T19:59:51.724Z,3.60
2022-12-08T20:02:23.834Z,3.40
2022-12-08T20:04:51.589Z,3.60
2022-12-08T20:07:19.849Z,3.70
2022-12-08T20:09:47.528Z,3.40
2022-12-08T20:12:15.472Z,3.50
2022-12-08T20:14:46.241Z,3.50
2022-12-08T20:17:14.072Z,3.70
2022-12-08T20:19:41.827Z,3.60
2022-12-08T20:22:09.502Z,3.80
2022-12-08T20:24:37.225Z,3.70
2022-12-08T20:27:05.007Z,3.80
2022-12-08T20:29:32.820Z,3.80
2022-12-08T20:32:01.886Z,3.70
2022-12-08T20:34:31.276Z,3.50
2022-12-08T20:36:58.945Z,3.80
2022-12-08T20:39:26.617Z,3.50
2022-12-08T20:41:55.934Z,3.80
2022-12-08T20:44:24.683Z,4.00
2022-12-08T20:46:52.463Z,3.70
2022-12-08T20:49:21.529Z,3.60
2022-12-08T20:51:49.890Z,3.70
2022-12-08T20:54:17.708Z,4.00
2022-12-08T20:56:48.544Z,4.10
2022-12-08T20:59:17.430Z,4.00
2022-12-08T21:01:45.224Z,3.70
2022-12-08T21:04:13.158Z,3.80
2022-12-08T21:06:42.490Z,3.90
2022-12-08T21:09:10.443Z,3.80
2022-12-08T21:11:38.262Z,3.50
2022-12-08T21:14:05.967Z,3.80
2022-12-08T21:16:33.824Z,3.70
2022-12-08T21:19:01.749Z,3.80
2022-12-08T21:21:29.460Z,3.80
2022-12-08T21:23:58.588Z,3.80
2022-12-08T21:26:26.510Z,3.60
2022-12-08T21:28:55.625Z,3.30
2022-12-08T21:31:23.563Z,3.50
2022-12-08T21:33:51.362Z,3.70
2022-12-08T21:36:19.793Z,3.90
2022-12-08T21:38:47.990Z,3.60
2022-12-08T21:41:39.746Z,3.40
2022-12-08T21:44:08.236Z,3.40
2022-12-08T21:46:36.357Z,3.60
2022-12-08T21:49:04.163Z,3.70
2022-12-08T21:51:33.533Z,3.80
2022-12-08T21:54:01.642Z,3.60
2022-12-08T21:56:30.746Z,3.80
2022-12-08T21:58:58.660Z,3.90
2022-12-08T22:01:26.549Z,3.90
2022-12-08T22:03:54.519Z,3.90
2022-12-08T22:06:22.508Z,3.80
2022-12-08T22:08:50.220Z,3.90
2022-12-08T22:11:19.025Z,3.90
2022-12-08T22:13:48.025Z,3.60
2022-12-08T22:16:15.933Z,3.90
2022-12-08T22:18:43.889Z,4.00
2022-12-08T22:21:12.400Z,4.00
2022-12-08T22:23:40.313Z,3.90
2022-12-08T22:26:08.703Z,4.00
2022-12-08T22:28:37.808Z,4.00
2022-12-08T22:31:11.306Z,3.90
2022-12-08T22:33:39.828Z,3.80
2022-12-08T22:36:10.969Z,3.80
2022-12-08T22:38:39.298Z,3.90
2022-12-08T22:41:07.293Z,3.90
2022-12-08T22:43:35.912Z,4.00
2022-12-08T22:46:11.872Z,3.90
2022-12-08T22:48:41.691Z,3.80
2022-12-08T22:51:10.120Z,3.90
2022-12-08T22:53:38.156Z,3.90
2022-12-08T22:56:06.467Z,3.90
2022-12-08T22:58:34.322Z,3.80
2022-12-08T23:01:02.214Z,3.70
2022-12-08T23:03:30.086Z,3.40
2022-12-08T23:05:59.375Z,3.00
2022-12-08T23:08:27.255Z,2.70
2022-12-08T23:10:55.281Z,2.70
2022-12-08T23:13:23.049Z,2.50
2022-12-08T23:15:50.778Z,2.80
2022-12-08T23:18:19.634Z,3.10
2022-12-08T23:20:48.984Z,3.30
2022-12-08T23:23:17.980Z,3.30
2022-12-08T23:25:45.696Z,3.50
2022-12-08T23:28:13.424Z,3.60
2022-12-08T23:30:41.508Z,3.60
2022-12-08T23:33:09.409Z,3.50
2022-12-08T23:35:37.118Z,3.50
2022-12-08T23:38:05.095Z,3.50
2022-12-08T23:40:34.278Z,3.30
2022-12-08T23:43:02.042Z,2.80
2022-12-08T23:45:29.885Z,3.00
2022-12-08T23:47:58.102Z,3.20
2022-12-08T23:50:26.177Z,3.20
2022-12-08T23:52:54.058Z,3.00
2022-12-08T23:55:21.744Z,2.80
2022-12-08T23:57:50.762Z,2.50
